To NAV CANADA Home Page Login to a new session Search on AWWS site Feedback and Comments Disclaimer Vers la page française équivalente Tips FAQ What's new on the site To the Forecasts and Observations / NOTAM section To "File a Flight Plan" website Publications and other links Update of the User's profile FIC Telephone Numbers My Weather Data Folder Route Weather Data Regional Weather Data Local Weather Data To the Forecasts and Observations / NOTAM section
Request Generated 03/23/2017 at 00:07:41 UTC . Weather information available at that time is displayed.

METAR/TAF

KINGSTON/ON    

METAR CYGK 230000Z 30005KT 15SM SKC M05/M21 A3045 RMK SLP319=
METAR CYGK 222300Z 31009KT 15SM FEW040 M04/M21 A3043 RMK SC1 SC TR
SLP314=
METAR CYGK 222200Z 33011KT 260V340 15SM FEW040 M04/M21 A3043 RMK SC1
SC TR SLP311=

TAF CYGK 221938Z 2220/2303 33012G22KT P6SM FEW040
BECMG 2221/2223 31008KT
RMK NXT FCST WILL BE ISSUED AT 231145Z=
Your time UTC time
Weather data provided by Environment Canada and NAV CANADA